SAVY/PMY METAR and TAF weather

Enter ICAO airport designator
Station Type Date Time Source
SAVY METAR 2020/04/02 18:10 UTC NOAA

SAVY 021810Z 32005KT 290V020 CAVOK 23/05 Q1022


Station Type Date Time Source
SAVY Decoded METAR 2020/04/02 18:10 UTC NOAA

Puerto Madryn, CHT, Argentina (SAVY) 42-45-33S 065-06-10W
Apr 02, 2020 - 02:10 PM EDT / 2020.04.02 1810 UTC
Wind: from the NW (320 degrees) at 6 MPH (5 KT) (direction variable):0
Visibility: greater than 7 mile(s):0
Temperature: 73 F (23 C)
Dew Point: 41 F (5 C)
Relative Humidity: 31%
Pressure (altimeter): 30.18 in. Hg (1022 hPa)
ob: SAVY 021810Z 32005KT 290V020 CAVOK 23/05 Q1022
cycle: 18

Station Type Date Time Source
SAVY TAF UTC NOAA

Error!

Example: see airport list